sensor_id;sensor_type;location;lat;lon;timestamp;P1;durP1;ratioP1;P2;durP2;ratioP2
17510;SDS011;8873;48.818;9.422;2022-12-17T00:00:06;35.43;;;15.03;;
17510;SDS011;8873;48.818;9.422;2022-12-17T00:02:55;37.03;;;14.63;;
17510;SDS011;8873;48.818;9.422;2022-12-17T00:05:39;32.93;;;13.57;;
17510;SDS011;8873;48.818;9.422;2022-12-17T00:08:26;39.50;;;14.97;;
17510;SDS011;8873;48.818;9.422;2022-12-17T00:11:11;35.60;;;15.10;;
17510;SDS011;8873;48.818;9.422;2022-12-17T00:13:56;32.73;;;14.40;;
17510;SDS011;8873;48.818;9.422;2022-12-17T00:16:40;34.20;;;14.13;;
17510;SDS011;8873;48.818;9.422;2022-12-17T00:19:25;43.30;;;14.67;;
17510;SDS011;8873;48.818;9.422;2022-12-17T00:22:11;36.80;;;14.17;;
17510;SDS011;8873;48.818;9.422;2022-12-17T00:24:57;32.33;;;13.53;;
17510;SDS011;8873;48.818;9.422;2022-12-17T00:27:42;36.10;;;14.57;;
17510;SDS011;8873;48.818;9.422;2022-12-17T00:30:27;36.00;;;14.00;;
17510;SDS011;8873;48.818;9.422;2022-12-17T00:33:12;35.47;;;13.97;;
17510;SDS011;8873;48.818;9.422;2022-12-17T00:36:12;37.67;;;13.83;;
17510;SDS011;8873;48.818;9.422;2022-12-17T00:39:02;36.90;;;15.67;;
17510;SDS011;8873;48.818;9.422;2022-12-17T00:41:49;39.17;;;15.40;;
17510;SDS011;8873;48.818;9.422;2022-12-17T00:44:34;33.17;;;14.33;;
17510;SDS011;8873;48.818;9.422;2022-12-17T00:47:21;34.83;;;14.33;;
17510;SDS011;8873;48.818;9.422;2022-12-17T00:50:06;40.60;;;14.83;;
17510;SDS011;8873;48.818;9.422;2022-12-17T00:52:52;37.23;;;13.87;;
17510;SDS011;8873;48.818;9.422;2022-12-17T00:55:37;32.47;;;12.80;;
17510;SDS011;8873;48.818;9.422;2022-12-17T00:58:24;38.63;;;14.23;;
17510;SDS011;8873;48.818;9.422;2022-12-17T01:01:09;35.97;;;14.07;;
17510;SDS011;8873;48.818;9.422;2022-12-17T01:03:55;37.77;;;15.47;;
17510;SDS011;8873;48.818;9.422;2022-12-17T01:06:40;35.87;;;15.57;;
17510;SDS011;8873;48.818;9.422;2022-12-17T01:09:25;40.67;;;16.00;;
17510;SDS011;8873;48.818;9.422;2022-12-17T01:12:10;34.23;;;14.40;;
17510;SDS011;8873;48.818;9.422;2022-12-17T01:14:56;43.17;;;15.50;;
17510;SDS011;8873;48.818;9.422;2022-12-17T01:17:41;34.13;;;13.20;;
17510;SDS011;8873;48.818;9.422;2022-12-17T01:20:26;40.87;;;15.23;;
17510;SDS011;8873;48.818;9.422;2022-12-17T01:23:11;41.17;;;16.23;;
17510;SDS011;8873;48.818;9.422;2022-12-17T01:25:56;36.23;;;13.97;;
17510;SDS011;8873;48.818;9.422;2022-12-17T01:28:42;37.77;;;14.83;;
17510;SDS011;8873;48.818;9.422;2022-12-17T01:31:28;39.57;;;15.00;;
17510;SDS011;8873;48.818;9.422;2022-12-17T01:34:13;35.03;;;13.80;;
17510;SDS011;8873;48.818;9.422;2022-12-17T01:36:58;32.13;;;14.53;;
17510;SDS011;8873;48.818;9.422;2022-12-17T01:39:43;36.83;;;15.00;;
17510;SDS011;8873;48.818;9.422;2022-12-17T01:42:35;34.47;;;14.37;;
17510;SDS011;8873;48.818;9.422;2022-12-17T01:45:20;36.00;;;15.10;;
17510;SDS011;8873;48.818;9.422;2022-12-17T01:48:09;33.10;;;14.30;;
17510;SDS011;8873;48.818;9.422;2022-12-17T01:50:55;38.93;;;13.57;;
17510;SDS011;8873;48.818;9.422;2022-12-17T01:53:40;36.13;;;14.53;;
17510;SDS011;8873;48.818;9.422;2022-12-17T01:56:26;37.73;;;14.07;;
17510;SDS011;8873;48.818;9.422;2022-12-17T01:59:12;44.07;;;14.67;;
17510;SDS011;8873;48.818;9.422;2022-12-17T02:01:57;34.70;;;13.70;;
17510;SDS011;8873;48.818;9.422;2022-12-17T02:04:43;40.07;;;14.13;;
17510;SDS011;8873;48.818;9.422;2022-12-17T02:07:46;34.73;;;13.60;;
17510;SDS011;8873;48.818;9.422;2022-12-17T02:10:35;38.93;;;14.27;;
17510;SDS011;8873;48.818;9.422;2022-12-17T02:13:39;40.20;;;14.50;;
17510;SDS011;8873;48.818;9.422;2022-12-17T02:16:25;30.77;;;14.00;;
17510;SDS011;8873;48.818;9.422;2022-12-17T02:19:25;34.83;;;14.50;;
17510;SDS011;8873;48.818;9.422;2022-12-17T02:22:23;33.47;;;13.80;;
17510;SDS011;8873;48.818;9.422;2022-12-17T02:25:13;33.03;;;13.93;;
17510;SDS011;8873;48.818;9.422;2022-12-17T02:28:00;34.57;;;13.60;;
17510;SDS011;8873;48.818;9.422;2022-12-17T02:30:48;35.83;;;15.27;;
17510;SDS011;8873;48.818;9.422;2022-12-17T02:33:34;36.73;;;14.23;;
17510;SDS011;8873;48.818;9.422;2022-12-17T02:36:19;41.90;;;14.13;;
17510;SDS011;8873;48.818;9.422;2022-12-17T02:39:04;40.43;;;15.57;;
17510;SDS011;8873;48.818;9.422;2022-12-17T02:41:50;37.70;;;14.30;;
17510;SDS011;8873;48.818;9.422;2022-12-17T02:44:38;41.83;;;16.13;;
17510;SDS011;8873;48.818;9.422;2022-12-17T02:47:24;37.63;;;15.63;;
17510;SDS011;8873;48.818;9.422;2022-12-17T02:50:12;40.00;;;15.50;;
17510;SDS011;8873;48.818;9.422;2022-12-17T02:52:58;47.27;;;16.77;;
17510;SDS011;8873;48.818;9.422;2022-12-17T02:55:43;42.73;;;16.17;;
17510;SDS011;8873;48.818;9.422;2022-12-17T02:58:29;49.00;;;17.07;;
17510;SDS011;8873;48.818;9.422;2022-12-17T03:01:15;43.47;;;17.37;;
17510;SDS011;8873;48.818;9.422;2022-12-17T03:04:00;44.43;;;16.23;;
17510;SDS011;8873;48.818;9.422;2022-12-17T03:06:45;52.17;;;17.83;;
17510;SDS011;8873;48.818;9.422;2022-12-17T03:09:30;42.90;;;18.03;;
17510;SDS011;8873;48.818;9.422;2022-12-17T03:12:15;42.40;;;16.47;;
17510;SDS011;8873;48.818;9.422;2022-12-17T03:15:00;41.63;;;15.90;;
17510;SDS011;8873;48.818;9.422;2022-12-17T03:17:47;38.53;;;16.50;;
17510;SDS011;8873;48.818;9.422;2022-12-17T03:20:31;49.47;;;17.20;;
17510;SDS011;8873;48.818;9.422;2022-12-17T03:23:17;41.70;;;16.33;;
17510;SDS011;8873;48.818;9.422;2022-12-17T03:26:02;41.57;;;17.00;;
17510;SDS011;8873;48.818;9.422;2022-12-17T03:28:48;42.63;;;16.77;;
17510;SDS011;8873;48.818;9.422;2022-12-17T03:31:33;42.50;;;16.60;;
17510;SDS011;8873;48.818;9.422;2022-12-17T03:34:18;44.73;;;17.40;;
17510;SDS011;8873;48.818;9.422;2022-12-17T03:37:03;44.27;;;15.73;;
17510;SDS011;8873;48.818;9.422;2022-12-17T03:39:48;41.10;;;16.80;;
17510;SDS011;8873;48.818;9.422;2022-12-17T03:42:33;42.33;;;15.87;;
17510;SDS011;8873;48.818;9.422;2022-12-17T03:45:18;42.97;;;16.43;;
17510;SDS011;8873;48.818;9.422;2022-12-17T03:48:04;40.00;;;16.40;;
17510;SDS011;8873;48.818;9.422;2022-12-17T03:50:51;47.67;;;15.13;;
17510;SDS011;8873;48.818;9.422;2022-12-17T03:53:37;45.00;;;16.53;;
17510;SDS011;8873;48.818;9.422;2022-12-17T03:56:22;44.80;;;15.63;;
17510;SDS011;8873;48.818;9.422;2022-12-17T03:59:07;34.97;;;15.27;;
17510;SDS011;8873;48.818;9.422;2022-12-17T04:01:52;43.23;;;17.03;;
17510;SDS011;8873;48.818;9.422;2022-12-17T04:04:37;37.13;;;15.63;;
17510;SDS011;8873;48.818;9.422;2022-12-17T04:07:23;52.90;;;16.63;;
17510;SDS011;8873;48.818;9.422;2022-12-17T04:10:09;34.20;;;14.70;;
17510;SDS011;8873;48.818;9.422;2022-12-17T04:12:54;41.03;;;15.90;;
17510;SDS011;8873;48.818;9.422;2022-12-17T04:15:39;42.90;;;17.43;;
17510;SDS011;8873;48.818;9.422;2022-12-17T04:18:24;35.90;;;15.57;;
17510;SDS011;8873;48.818;9.422;2022-12-17T04:21:09;41.50;;;15.93;;
17510;SDS011;8873;48.818;9.422;2022-12-17T04:23:56;38.63;;;15.57;;
17510;SDS011;8873;48.818;9.422;2022-12-17T04:26:41;37.67;;;15.03;;
17510;SDS011;8873;48.818;9.422;2022-12-17T04:29:26;38.63;;;15.23;;
17510;SDS011;8873;48.818;9.422;2022-12-17T04:32:10;45.50;;;16.37;;
17510;SDS011;8873;48.818;9.422;2022-12-17T04:35:00;41.77;;;15.47;;
17510;SDS011;8873;48.818;9.422;2022-12-17T04:37:45;43.93;;;17.47;;
17510;SDS011;8873;48.818;9.422;2022-12-17T04:40:32;45.93;;;17.17;;
17510;SDS011;8873;48.818;9.422;2022-12-17T04:43:29;42.63;;;16.60;;
17510;SDS011;8873;48.818;9.422;2022-12-17T04:46:14;42.27;;;16.87;;
17510;SDS011;8873;48.818;9.422;2022-12-17T04:48:59;49.20;;;17.93;;
17510;SDS011;8873;48.818;9.422;2022-12-17T04:51:44;45.67;;;16.87;;
17510;SDS011;8873;48.818;9.422;2022-12-17T04:54:29;48.97;;;18.57;;
17510;SDS011;8873;48.818;9.422;2022-12-17T04:57:15;58.97;;;19.13;;
17510;SDS011;8873;48.818;9.422;2022-12-17T05:00:00;54.00;;;18.87;;
17510;SDS011;8873;48.818;9.422;2022-12-17T05:02:46;46.90;;;17.50;;
17510;SDS011;8873;48.818;9.422;2022-12-17T05:05:30;61.30;;;19.80;;
17510;SDS011;8873;48.818;9.422;2022-12-17T05:08:27;54.47;;;20.37;;
17510;SDS011;8873;48.818;9.422;2022-12-17T05:11:12;61.07;;;21.57;;
17510;SDS011;8873;48.818;9.422;2022-12-17T05:13:58;62.43;;;20.80;;
17510;SDS011;8873;48.818;9.422;2022-12-17T05:16:43;56.87;;;18.93;;
17510;SDS011;8873;48.818;9.422;2022-12-17T05:19:28;64.23;;;20.97;;
17510;SDS011;8873;48.818;9.422;2022-12-17T05:22:13;51.57;;;19.03;;
17510;SDS011;8873;48.818;9.422;2022-12-17T05:24:58;63.03;;;21.13;;
17510;SDS011;8873;48.818;9.422;2022-12-17T05:27:44;64.10;;;21.37;;
17510;SDS011;8873;48.818;9.422;2022-12-17T05:30:30;53.83;;;19.53;;
17510;SDS011;8873;48.818;9.422;2022-12-17T05:33:16;59.27;;;20.20;;
17510;SDS011;8873;48.818;9.422;2022-12-17T05:36:02;63.10;;;21.17;;
17510;SDS011;8873;48.818;9.422;2022-12-17T05:38:47;59.17;;;20.93;;
17510;SDS011;8873;48.818;9.422;2022-12-17T05:41:33;55.90;;;19.40;;
17510;SDS011;8873;48.818;9.422;2022-12-17T05:44:18;57.07;;;19.77;;
17510;SDS011;8873;48.818;9.422;2022-12-17T05:47:04;66.83;;;22.43;;
17510;SDS011;8873;48.818;9.422;2022-12-17T05:49:49;56.17;;;19.00;;
17510;SDS011;8873;48.818;9.422;2022-12-17T05:52:34;66.57;;;21.53;;
17510;SDS011;8873;48.818;9.422;2022-12-17T05:55:19;58.00;;;19.93;;
17510;SDS011;8873;48.818;9.422;2022-12-17T05:58:04;60.90;;;20.37;;
17510;SDS011;8873;48.818;9.422;2022-12-17T06:00:53;61.63;;;20.87;;
17510;SDS011;8873;48.818;9.422;2022-12-17T06:03:48;67.87;;;21.13;;
17510;SDS011;8873;48.818;9.422;2022-12-17T06:06:33;68.80;;;23.07;;
17510;SDS011;8873;48.818;9.422;2022-12-17T06:09:19;62.30;;;21.70;;
17510;SDS011;8873;48.818;9.422;2022-12-17T06:12:04;69.70;;;22.90;;
17510;SDS011;8873;48.818;9.422;2022-12-17T06:14:49;69.60;;;23.13;;
17510;SDS011;8873;48.818;9.422;2022-12-17T06:17:34;61.70;;;21.77;;
17510;SDS011;8873;48.818;9.422;2022-12-17T06:20:20;72.03;;;22.67;;
17510;SDS011;8873;48.818;9.422;2022-12-17T06:23:06;56.47;;;19.90;;
17510;SDS011;8873;48.818;9.422;2022-12-17T06:25:53;63.83;;;21.93;;
17510;SDS011;8873;48.818;9.422;2022-12-17T06:28:38;66.93;;;22.03;;
17510;SDS011;8873;48.818;9.422;2022-12-17T06:31:23;57.93;;;21.37;;
17510;SDS011;8873;48.818;9.422;2022-12-17T06:34:10;66.13;;;21.40;;
17510;SDS011;8873;48.818;9.422;2022-12-17T06:36:57;68.50;;;21.77;;
17510;SDS011;8873;48.818;9.422;2022-12-17T06:39:42;63.00;;;22.80;;
17510;SDS011;8873;48.818;9.422;2022-12-17T06:42:27;62.87;;;22.37;;
17510;SDS011;8873;48.818;9.422;2022-12-17T06:45:12;61.47;;;21.70;;
17510;SDS011;8873;48.818;9.422;2022-12-17T06:48:00;54.00;;;20.23;;
17510;SDS011;8873;48.818;9.422;2022-12-17T06:50:45;55.43;;;21.10;;
17510;SDS011;8873;48.818;9.422;2022-12-17T06:53:32;57.47;;;19.60;;
17510;SDS011;8873;48.818;9.422;2022-12-17T06:56:17;57.77;;;20.47;;
17510;SDS011;8873;48.818;9.422;2022-12-17T06:59:02;57.87;;;20.43;;
17510;SDS011;8873;48.818;9.422;2022-12-17T07:01:48;62.23;;;19.30;;
17510;SDS011;8873;48.818;9.422;2022-12-17T07:04:33;59.93;;;20.20;;
17510;SDS011;8873;48.818;9.422;2022-12-17T07:07:18;52.17;;;19.33;;
17510;SDS011;8873;48.818;9.422;2022-12-17T07:10:05;57.50;;;19.13;;
17510;SDS011;8873;48.818;9.422;2022-12-17T07:12:51;58.83;;;19.33;;
17510;SDS011;8873;48.818;9.422;2022-12-17T07:15:36;62.60;;;22.50;;
17510;SDS011;8873;48.818;9.422;2022-12-17T07:18:21;69.20;;;21.73;;
17510;SDS011;8873;48.818;9.422;2022-12-17T07:21:06;59.60;;;19.93;;
17510;SDS011;8873;48.818;9.422;2022-12-17T07:23:51;58.80;;;19.70;;
17510;SDS011;8873;48.818;9.422;2022-12-17T07:26:37;50.97;;;19.23;;
17510;SDS011;8873;48.818;9.422;2022-12-17T07:29:22;55.33;;;20.03;;
17510;SDS011;8873;48.818;9.422;2022-12-17T07:32:07;53.50;;;19.13;;
17510;SDS011;8873;48.818;9.422;2022-12-17T07:34:52;56.07;;;19.77;;
17510;SDS011;8873;48.818;9.422;2022-12-17T07:37:37;61.73;;;21.10;;
17510;SDS011;8873;48.818;9.422;2022-12-17T07:40:23;60.87;;;20.47;;
17510;SDS011;8873;48.818;9.422;2022-12-17T07:43:10;65.87;;;24.57;;
17510;SDS011;8873;48.818;9.422;2022-12-17T07:45:55;65.23;;;21.33;;
17510;SDS011;8873;48.818;9.422;2022-12-17T07:48:41;60.40;;;20.60;;
17510;SDS011;8873;48.818;9.422;2022-12-17T07:51:25;54.87;;;18.10;;
17510;SDS011;8873;48.818;9.422;2022-12-17T07:54:10;68.90;;;21.43;;
17510;SDS011;8873;48.818;9.422;2022-12-17T07:56:56;72.90;;;25.23;;
17510;SDS011;8873;48.818;9.422;2022-12-17T07:59:42;86.67;;;28.13;;
17510;SDS011;8873;48.818;9.422;2022-12-17T08:02:28;106.80;;;32.47;;
17510;SDS011;8873;48.818;9.422;2022-12-17T08:05:13;80.03;;;24.73;;
17510;SDS011;8873;48.818;9.422;2022-12-17T08:08:07;60.83;;;20.47;;
17510;SDS011;8873;48.818;9.422;2022-12-17T08:10:51;49.50;;;17.30;;
17510;SDS011;8873;48.818;9.422;2022-12-17T08:13:36;62.53;;;21.07;;
17510;SDS011;8873;48.818;9.422;2022-12-17T08:16:22;59.33;;;20.20;;
17510;SDS011;8873;48.818;9.422;2022-12-17T08:19:03;61.97;;;19.97;;
17510;SDS011;8873;48.818;9.422;2022-12-17T08:21:48;61.70;;;22.10;;
17510;SDS011;8873;48.818;9.422;2022-12-17T08:24:34;58.57;;;20.60;;
17510;SDS011;8873;48.818;9.422;2022-12-17T08:27:19;46.80;;;18.37;;
17510;SDS011;8873;48.818;9.422;2022-12-17T08:30:05;52.90;;;18.73;;
17510;SDS011;8873;48.818;9.422;2022-12-17T08:32:52;54.57;;;18.37;;
17510;SDS011;8873;48.818;9.422;2022-12-17T08:35:36;49.20;;;18.73;;
17510;SDS011;8873;48.818;9.422;2022-12-17T08:38:21;49.07;;;18.07;;
17510;SDS011;8873;48.818;9.422;2022-12-17T08:41:07;48.03;;;17.83;;
17510;SDS011;8873;48.818;9.422;2022-12-17T08:43:52;58.30;;;20.10;;
17510;SDS011;8873;48.818;9.422;2022-12-17T08:46:38;59.83;;;21.70;;
17510;SDS011;8873;48.818;9.422;2022-12-17T08:49:20;59.43;;;22.00;;
17510;SDS011;8873;48.818;9.422;2022-12-17T08:52:06;56.57;;;20.03;;
17510;SDS011;8873;48.818;9.422;2022-12-17T08:54:51;64.20;;;20.13;;
17510;SDS011;8873;48.818;9.422;2022-12-17T08:57:36;50.57;;;18.23;;
17510;SDS011;8873;48.818;9.422;2022-12-17T09:00:22;54.40;;;19.10;;
17510;SDS011;8873;48.818;9.422;2022-12-17T09:03:07;52.03;;;16.83;;
17510;SDS011;8873;48.818;9.422;2022-12-17T09:05:54;51.03;;;17.77;;
17510;SDS011;8873;48.818;9.422;2022-12-17T09:08:38;57.87;;;20.13;;
17510;SDS011;8873;48.818;9.422;2022-12-17T09:11:24;52.23;;;16.80;;
17510;SDS011;8873;48.818;9.422;2022-12-17T09:14:08;56.63;;;18.10;;
17510;SDS011;8873;48.818;9.422;2022-12-17T09:16:56;56.10;;;19.57;;
17510;SDS011;8873;48.818;9.422;2022-12-17T09:19:41;57.77;;;20.83;;
17510;SDS011;8873;48.818;9.422;2022-12-17T09:22:27;58.23;;;20.97;;
17510;SDS011;8873;48.818;9.422;2022-12-17T09:25:12;46.53;;;17.80;;
17510;SDS011;8873;48.818;9.422;2022-12-17T09:27:58;56.50;;;20.07;;
17510;SDS011;8873;48.818;9.422;2022-12-17T09:30:44;50.47;;;18.87;;
17510;SDS011;8873;48.818;9.422;2022-12-17T09:33:29;62.37;;;20.10;;
17510;SDS011;8873;48.818;9.422;2022-12-17T09:36:14;52.73;;;17.83;;
17510;SDS011;8873;48.818;9.422;2022-12-17T09:39:00;56.47;;;20.23;;
17510;SDS011;8873;48.818;9.422;2022-12-17T09:42:01;49.10;;;18.53;;
17510;SDS011;8873;48.818;9.422;2022-12-17T09:44:50;51.67;;;18.67;;
17510;SDS011;8873;48.818;9.422;2022-12-17T09:47:39;58.57;;;19.87;;
17510;SDS011;8873;48.818;9.422;2022-12-17T09:50:28;50.90;;;19.20;;
17510;SDS011;8873;48.818;9.422;2022-12-17T09:53:16;55.27;;;19.10;;
17510;SDS011;8873;48.818;9.422;2022-12-17T09:56:05;53.93;;;19.10;;
17510;SDS011;8873;48.818;9.422;2022-12-17T09:58:53;55.53;;;19.90;;
17510;SDS011;8873;48.818;9.422;2022-12-17T10:01:39;54.30;;;19.27;;
17510;SDS011;8873;48.818;9.422;2022-12-17T10:04:27;46.97;;;17.73;;
17510;SDS011;8873;48.818;9.422;2022-12-17T10:07:14;53.30;;;18.50;;
17510;SDS011;8873;48.818;9.422;2022-12-17T10:10:05;50.37;;;17.80;;
17510;SDS011;8873;48.818;9.422;2022-12-17T10:12:55;59.23;;;20.10;;
17510;SDS011;8873;48.818;9.422;2022-12-17T10:15:45;58.67;;;20.00;;
17510;SDS011;8873;48.818;9.422;2022-12-17T10:18:30;56.83;;;20.17;;
17510;SDS011;8873;48.818;9.422;2022-12-17T10:21:16;45.50;;;17.07;;
17510;SDS011;8873;48.818;9.422;2022-12-17T10:24:05;50.97;;;18.57;;
17510;SDS011;8873;48.818;9.422;2022-12-17T10:26:50;54.40;;;19.50;;
17510;SDS011;8873;48.818;9.422;2022-12-17T10:29:37;54.23;;;19.77;;
17510;SDS011;8873;48.818;9.422;2022-12-17T10:32:23;51.83;;;17.93;;
17510;SDS011;8873;48.818;9.422;2022-12-17T10:35:21;56.03;;;19.63;;
17510;SDS011;8873;48.818;9.422;2022-12-17T10:38:10;55.17;;;18.93;;
17510;SDS011;8873;48.818;9.422;2022-12-17T10:40:56;47.17;;;18.27;;
17510;SDS011;8873;48.818;9.422;2022-12-17T10:43:41;49.37;;;18.57;;
17510;SDS011;8873;48.818;9.422;2022-12-17T10:46:28;50.90;;;19.03;;
17510;SDS011;8873;48.818;9.422;2022-12-17T10:49:14;53.17;;;18.70;;
17510;SDS011;8873;48.818;9.422;2022-12-17T10:52:00;48.13;;;17.10;;
17510;SDS011;8873;48.818;9.422;2022-12-17T10:54:53;48.97;;;19.00;;
17510;SDS011;8873;48.818;9.422;2022-12-17T10:57:40;48.90;;;17.70;;
17510;SDS011;8873;48.818;9.422;2022-12-17T11:00:26;55.70;;;19.03;;
17510;SDS011;8873;48.818;9.422;2022-12-17T11:06:21;48.03;;;19.00;;
17510;SDS011;8873;48.818;9.422;2022-12-17T11:09:11;54.17;;;18.40;;
17510;SDS011;8873;48.818;9.422;2022-12-17T11:11:58;52.60;;;19.57;;
17510;SDS011;8873;48.818;9.422;2022-12-17T11:17:17;50.27;;;18.60;;
17510;SDS011;8873;48.818;9.422;2022-12-17T11:20:04;50.33;;;18.53;;
17510;SDS011;8873;48.818;9.422;2022-12-17T11:22:53;51.50;;;19.17;;
17510;SDS011;8873;48.818;9.422;2022-12-17T11:25:43;51.30;;;18.77;;
17510;SDS011;8873;48.818;9.422;2022-12-17T11:28:33;48.03;;;18.43;;
17510;SDS011;8873;48.818;9.422;2022-12-17T11:31:24;51.60;;;19.57;;
17510;SDS011;8873;48.818;9.422;2022-12-17T11:34:12;57.00;;;20.50;;
17510;SDS011;8873;48.818;9.422;2022-12-17T11:37:01;50.33;;;18.23;;
17510;SDS011;8873;48.818;9.422;2022-12-17T11:39:52;52.63;;;20.33;;
17510;SDS011;8873;48.818;9.422;2022-12-17T11:42:42;49.53;;;18.00;;
17510;SDS011;8873;48.818;9.422;2022-12-17T11:45:50;56.90;;;18.73;;
17510;SDS011;8873;48.818;9.422;2022-12-17T11:48:41;57.77;;;20.67;;
17510;SDS011;8873;48.818;9.422;2022-12-17T11:51:30;55.90;;;19.43;;
17510;SDS011;8873;48.818;9.422;2022-12-17T11:54:19;47.93;;;19.10;;
17510;SDS011;8873;48.818;9.422;2022-12-17T11:57:09;45.13;;;17.80;;
17510;SDS011;8873;48.818;9.422;2022-12-17T12:00:00;46.83;;;18.80;;
17510;SDS011;8873;48.818;9.422;2022-12-17T12:02:54;51.20;;;19.57;;
17510;SDS011;8873;48.818;9.422;2022-12-17T12:05:44;53.33;;;18.83;;
17510;SDS011;8873;48.818;9.422;2022-12-17T12:08:32;55.80;;;20.73;;
17510;SDS011;8873;48.818;9.422;2022-12-17T12:11:22;52.67;;;19.37;;
17510;SDS011;8873;48.818;9.422;2022-12-17T12:14:13;55.17;;;19.73;;
17510;SDS011;8873;48.818;9.422;2022-12-17T12:17:00;48.93;;;19.87;;
17510;SDS011;8873;48.818;9.422;2022-12-17T12:19:49;48.83;;;19.10;;
17510;SDS011;8873;48.818;9.422;2022-12-17T12:22:37;59.40;;;22.07;;
17510;SDS011;8873;48.818;9.422;2022-12-17T12:25:35;50.90;;;19.20;;
17510;SDS011;8873;48.818;9.422;2022-12-17T12:28:26;55.37;;;19.93;;
17510;SDS011;8873;48.818;9.422;2022-12-17T12:31:24;55.50;;;19.30;;
17510;SDS011;8873;48.818;9.422;2022-12-17T12:34:17;59.47;;;23.13;;
17510;SDS011;8873;48.818;9.422;2022-12-17T12:37:03;60.07;;;22.50;;
17510;SDS011;8873;48.818;9.422;2022-12-17T12:39:50;48.07;;;18.83;;
17510;SDS011;8873;48.818;9.422;2022-12-17T12:49:02;60.90;;;21.67;;
17510;SDS011;8873;48.818;9.422;2022-12-17T12:51:52;55.13;;;21.30;;
17510;SDS011;8873;48.818;9.422;2022-12-17T12:54:50;60.60;;;22.30;;
17510;SDS011;8873;48.818;9.422;2022-12-17T12:57:33;58.27;;;20.80;;
17510;SDS011;8873;48.818;9.422;2022-12-17T13:00:22;62.47;;;22.20;;
17510;SDS011;8873;48.818;9.422;2022-12-17T13:06:08;61.03;;;20.63;;
17510;SDS011;8873;48.818;9.422;2022-12-17T13:08:42;51.07;;;19.03;;
17510;SDS011;8873;48.818;9.422;2022-12-17T13:11:27;48.83;;;19.60;;
17510;SDS011;8873;48.818;9.422;2022-12-17T13:14:02;52.67;;;21.80;;
17510;SDS011;8873;48.818;9.422;2022-12-17T13:16:36;52.27;;;20.50;;
17510;SDS011;8873;48.818;9.422;2022-12-17T13:19:33;63.07;;;27.93;;
17510;SDS011;8873;48.818;9.422;2022-12-17T13:22:22;65.20;;;25.50;;
17510;SDS011;8873;48.818;9.422;2022-12-17T13:25:15;54.20;;;21.20;;
17510;SDS011;8873;48.818;9.422;2022-12-17T13:27:52;51.20;;;21.57;;
17510;SDS011;8873;48.818;9.422;2022-12-17T13:30:31;55.67;;;20.97;;
17510;SDS011;8873;48.818;9.422;2022-12-17T13:33:04;51.70;;;20.40;;
17510;SDS011;8873;48.818;9.422;2022-12-17T13:35:36;51.83;;;21.17;;
17510;SDS011;8873;48.818;9.422;2022-12-17T13:38:13;54.60;;;19.83;;
17510;SDS011;8873;48.818;9.422;2022-12-17T13:40:47;52.53;;;20.33;;
17510;SDS011;8873;48.818;9.422;2022-12-17T13:43:23;60.30;;;20.23;;
17510;SDS011;8873;48.818;9.422;2022-12-17T13:46:01;51.33;;;20.50;;
17510;SDS011;8873;48.818;9.422;2022-12-17T13:48:33;55.97;;;21.73;;
17510;SDS011;8873;48.818;9.422;2022-12-17T13:51:16;53.07;;;21.40;;
17510;SDS011;8873;48.818;9.422;2022-12-17T13:57:13;56.87;;;21.37;;
17510;SDS011;8873;48.818;9.422;2022-12-17T14:03:08;50.07;;;21.27;;
17510;SDS011;8873;48.818;9.422;2022-12-17T14:05:38;55.92;;;22.00;;
17510;SDS011;8873;48.818;9.422;2022-12-17T14:08:11;55.45;;;21.60;;
17510;SDS011;8873;48.818;9.422;2022-12-17T14:10:41;51.60;;;22.50;;
17510;SDS011;8873;48.818;9.422;2022-12-17T14:13:13;49.03;;;20.50;;
17510;SDS011;8873;48.818;9.422;2022-12-17T14:15:43;51.85;;;21.50;;
17510;SDS011;8873;48.818;9.422;2022-12-17T14:18:12;60.23;;;22.57;;
17510;SDS011;8873;48.818;9.422;2022-12-17T14:20:40;47.77;;;20.70;;
17510;SDS011;8873;48.818;9.422;2022-12-17T14:23:10;58.97;;;22.03;;
17510;SDS011;8873;48.818;9.422;2022-12-17T14:25:39;60.37;;;22.20;;
17510;SDS011;8873;48.818;9.422;2022-12-17T14:28:20;51.50;;;21.65;;
17510;SDS011;8873;48.818;9.422;2022-12-17T14:30:51;52.15;;;21.27;;
17510;SDS011;8873;48.818;9.422;2022-12-17T14:33:58;51.03;;;22.00;;
17510;SDS011;8873;48.818;9.422;2022-12-17T14:36:26;52.67;;;22.27;;
17510;SDS011;8873;48.818;9.422;2022-12-17T14:38:55;54.70;;;22.87;;
17510;SDS011;8873;48.818;9.422;2022-12-17T14:41:23;60.13;;;22.97;;
17510;SDS011;8873;48.818;9.422;2022-12-17T14:44:15;61.87;;;22.43;;
17510;SDS011;8873;48.818;9.422;2022-12-17T14:46:53;52.93;;;21.53;;
17510;SDS011;8873;48.818;9.422;2022-12-17T14:49:21;56.73;;;21.40;;
17510;SDS011;8873;48.818;9.422;2022-12-17T14:51:48;55.73;;;21.93;;
17510;SDS011;8873;48.818;9.422;2022-12-17T14:54:17;53.00;;;20.90;;
17510;SDS011;8873;48.818;9.422;2022-12-17T14:56:45;56.60;;;20.80;;
17510;SDS011;8873;48.818;9.422;2022-12-17T14:59:24;59.93;;;21.13;;
17510;SDS011;8873;48.818;9.422;2022-12-17T15:01:52;56.33;;;23.30;;
17510;SDS011;8873;48.818;9.422;2022-12-17T15:04:21;58.83;;;22.03;;
17510;SDS011;8873;48.818;9.422;2022-12-17T15:06:49;74.70;;;25.70;;
17510;SDS011;8873;48.818;9.422;2022-12-17T15:09:20;68.23;;;25.97;;
17510;SDS011;8873;48.818;9.422;2022-12-17T15:11:47;71.60;;;25.63;;
17510;SDS011;8873;48.818;9.422;2022-12-17T15:14:15;71.67;;;24.97;;
17510;SDS011;8873;48.818;9.422;2022-12-17T15:16:44;69.07;;;24.33;;
17510;SDS011;8873;48.818;9.422;2022-12-17T15:19:12;72.60;;;27.67;;
17510;SDS011;8873;48.818;9.422;2022-12-17T15:21:39;71.93;;;25.40;;
17510;SDS011;8873;48.818;9.422;2022-12-17T15:24:09;74.60;;;27.70;;
17510;SDS011;8873;48.818;9.422;2022-12-17T15:26:37;88.13;;;33.37;;
17510;SDS011;8873;48.818;9.422;2022-12-17T15:29:05;94.63;;;36.03;;
17510;SDS011;8873;48.818;9.422;2022-12-17T15:31:32;86.93;;;32.87;;
17510;SDS011;8873;48.818;9.422;2022-12-17T15:34:02;93.40;;;33.70;;
17510;SDS011;8873;48.818;9.422;2022-12-17T15:36:30;85.20;;;31.27;;
17510;SDS011;8873;48.818;9.422;2022-12-17T15:38:58;84.40;;;29.57;;
17510;SDS011;8873;48.818;9.422;2022-12-17T15:41:25;77.57;;;28.77;;
17510;SDS011;8873;48.818;9.422;2022-12-17T15:44:10;83.00;;;29.70;;
17510;SDS011;8873;48.818;9.422;2022-12-17T15:46:38;82.60;;;29.90;;
17510;SDS011;8873;48.818;9.422;2022-12-17T15:49:07;77.87;;;29.33;;
17510;SDS011;8873;48.818;9.422;2022-12-17T15:51:35;83.93;;;31.67;;
17510;SDS011;8873;48.818;9.422;2022-12-17T15:54:02;91.10;;;31.97;;
17510;SDS011;8873;48.818;9.422;2022-12-17T15:56:30;87.70;;;31.30;;
17510;SDS011;8873;48.818;9.422;2022-12-17T15:58:57;89.07;;;31.63;;
17510;SDS011;8873;48.818;9.422;2022-12-17T16:01:28;86.93;;;30.90;;
17510;SDS011;8873;48.818;9.422;2022-12-17T16:03:56;91.63;;;31.97;;
17510;SDS011;8873;48.818;9.422;2022-12-17T16:06:25;79.13;;;30.57;;
17510;SDS011;8873;48.818;9.422;2022-12-17T16:08:52;79.70;;;29.30;;
17510;SDS011;8873;48.818;9.422;2022-12-17T16:11:20;74.53;;;28.27;;
17510;SDS011;8873;48.818;9.422;2022-12-17T16:13:51;74.70;;;29.20;;
17510;SDS011;8873;48.818;9.422;2022-12-17T16:16:19;86.87;;;30.80;;
17510;SDS011;8873;48.818;9.422;2022-12-17T16:18:46;81.50;;;32.37;;
17510;SDS011;8873;48.818;9.422;2022-12-17T16:21:14;85.20;;;30.57;;
17510;SDS011;8873;48.818;9.422;2022-12-17T16:23:43;83.53;;;28.43;;
17510;SDS011;8873;48.818;9.422;2022-12-17T16:26:12;78.73;;;27.27;;
17510;SDS011;8873;48.818;9.422;2022-12-17T16:28:42;78.17;;;27.30;;
17510;SDS011;8873;48.818;9.422;2022-12-17T16:31:10;69.70;;;24.87;;